地図

経路データ

SID SEASON NUMBER BASIN SUBBASIN NAME ISO_TIME NATURE LAT LON WMO_WIND WMO_PRES WMO_AGENCY TRACK_TYPE DIST2LAND LANDFALL IFLAG USA_AGENCY USA_ATCF_ID USA_LAT USA_LON USA_RECORD USA_STATUS USA_WIND USA_PRES USA_SSHS USA_R34_NE USA_R34_SE USA_R34_SW USA_R34_NW USA_R50_NE USA_R50_SE USA_R50_SW USA_R50_NW USA_R64_NE USA_R64_SE USA_R64_SW USA_R64_NW USA_POCI USA_ROCI USA_RMW USA_EYE TOKYO_LAT TOKYO_LON TOKYO_GRADE TOKYO_WIND TOKYO_PRES TOKYO_R50_DIR TOKYO_R50_LONG TOKYO_R50_SHORT TOKYO_R30_DIR TOKYO_R30_LONG TOKYO_R30_SHORT TOKYO_LAND CMA_LAT CMA_LON CMA_CAT CMA_WIND CMA_PRES HKO_LAT HKO_LON HKO_CAT HKO_WIND HKO_PRES NEWDELHI_LAT NEWDELHI_LON NEWDELHI_GRADE NEWDELHI_WIND NEWDELHI_PRES NEWDELHI_CI NEWDELHI_DP NEWDELHI_POCI REUNION_LAT REUNION_LON REUNION_TYPE REUNION_WIND REUNION_PRES REUNION_TNUM REUNION_CI REUNION_RMW REUNION_R34_NE REUNION_R34_SE REUNION_R34_SW REUNION_R34_NW REUNION_R50_NE REUNION_R50_SE REUNION_R50_SW REUNION_R50_NW REUNION_R64_NE REUNION_R64_SE REUNION_R64_SW REUNION_R64_NW BOM_LAT BOM_LON BOM_TYPE BOM_WIND BOM_PRES BOM_TNUM BOM_CI BOM_RMW BOM_R34_NE BOM_R34_SE BOM_R34_SW BOM_R34_NW BOM_R50_NE BOM_R50_SE BOM_R50_SW BOM_R50_NW BOM_R64_NE BOM_R64_SE BOM_R64_SW BOM_R64_NW BOM_ROCI BOM_POCI BOM_EYE BOM_POS_METHOD BOM_PRES_METHOD NADI_LAT NADI_LON NADI_CAT NADI_WIND NADI_PRES WELLINGTON_LAT WELLINGTON_LON WELLINGTON_WIND WELLINGTON_PRES DS824_LAT DS824_LON DS824_STAGE DS824_WIND DS824_PRES TD9636_LAT TD9636_LON TD9636_STAGE TD9636_WIND TD9636_PRES TD9635_LAT TD9635_LON TD9635_WIND TD9635_PRES TD9635_ROCI NEUMANN_LAT NEUMANN_LON NEUMANN_CLASS NEUMANN_WIND NEUMANN_PRES MLC_LAT MLC_LON MLC_CLASS MLC_WIND MLC_PRES USA_GUST BOM_GUST BOM_GUST_PER REUNION_GUST REUNION_GUST_PER USA_SEAHGT USA_SEARAD_NE USA_SEARAD_SE USA_SEARAD_SW USA_SEARAD_NW STORM_SPEED STORM_DIR
1958182N08113 1958 47 WP MM NOT_NAMED 1958-06-30 12:00:00 NR 7.80000 113.100 main 369 362 __________O___ -1 7.80000 113.100 1 4 45
1958182N08113 1958 47 WP MM NOT_NAMED 1958-06-30 15:00:00 NR 7.94720 113.251 main 362 362 __________P___ -1 7.94720 113.251 1 3 29
1958182N08113 1958 47 WP MM NOT_NAMED 1958-06-30 18:00:00 NR 8.09553 113.262 main 379 379 __________P___ -1 8.09553 113.262 1 4 319
1958182N08113 1958 47 WP MM NOT_NAMED 1958-06-30 21:00:00 NR 8.24628 112.992 main 409 409 __________P___ -1 8.24628 112.992 1 10 288
1958182N08113 1958 47 WP MM NOT_NAMED 1958-07-01 00:00:00 NR 8.40000 112.300 main 465 404 __________O___ -1 8.40000 112.300 1 19 280
1958182N08113 1958 47 WP MM NOT_NAMED 1958-07-01 03:00:00 NR 8.55797 111.126 main 389 296 __________P___ -1 8.55797 111.126 1 26 277
1958182N08113 1958 47 WP MM NOT_NAMED 1958-07-01 06:00:00 NR 8.73150 109.745 main 290 212 __________P___ -1 8.73150 109.745 1 26 278
1958182N08113 1958 47 WP MM NOT_NAMED 1958-07-01 09:00:00 NR 8.93817 108.517 main 208 143 __________P___ -1 8.93817 108.517 1 20 284
1958182N08113 1958 47 WP MM NOT_NAMED 1958-07-01 12:00:00 NR 9.20000 107.800 main 143 129 __________O___ -1 9.20000 107.800 1 6 327
1958182N08113 1958 47 WP MM NOT_NAMED 1958-07-01 15:00:00 NR 9.47037 108.168 main 136 130 __________P___ -1 9.47037 108.168 1 14 64
1958182N08113 1958 47 WP MM NOT_NAMED 1958-07-01 18:00:00 NR 9.80813 109.057 main 151 149 __________P___ -1 9.80813 109.057 1 21 68
1958182N08113 1958 47 WP MM NOT_NAMED 1958-07-01 21:00:00 NR 10.2411 110.143 main 180 179 __________P___ -1 10.2411 110.143 1 22 64
1958182N08113 1958 47 WP MM NOT_NAMED 1958-07-02 00:00:00 NR 10.8000 111.100 main 230 230 __________O___ -1 10.8000 111.100 1 20 47
1958182N08113 1958 47 WP MM NOT_NAMED 1958-07-02 03:00:00 NR 11.6118 111.631 main 252 251 __________P___ -1 11.6118 111.631 1 19 26
1958182N08113 1958 47 WP MM NOT_NAMED 1958-07-02 06:00:00 NR 12.5341 111.957 main 271 271 __________P___ -1 12.5341 111.957 1 19 12
1958182N08113 1958 47 WP MM NOT_NAMED 1958-07-02 09:00:00 NR 13.4394 112.031 main 276 270 __________P___ -1 13.4394 112.031 1 17 355
1958182N08113 1958 47 WP MM NOT_NAMED 1958-07-02 12:00:00 NR 14.2000 111.800 main 271 219 __________O___ -1 14.2000 111.800 1 15 324
1958182N08113 1958 47 WP MM NOT_NAMED 1958-07-02 15:00:00 NR 14.6768 111.116 main 213 122 __________P___ -1 14.6768 111.116 1 18 296
1958182N08113 1958 47 WP MM NOT_NAMED 1958-07-02 18:00:00 NR 14.9887 110.158 main 122 32 __________P___ -1 14.9887 110.158 1 20 285
1958182N08113 1958 47 WP MM NOT_NAMED 1958-07-02 21:00:00 NR 15.1804 109.146 main 21 0 __________P___ -1 15.1804 109.146 1 18 280
1958182N08113 1958 47 WP MM NOT_NAMED 1958-07-03 00:00:00 NR 15.3000 108.300 main 0 0 __________O___ -1 15.3000 108.300 1 12 285
1958182N08113 1958 47 WP MM NOT_NAMED 1958-07-03 03:00:00 NR 15.4907 107.984 main 0 0 __________P___ -1 15.4907 107.984 1 5 306
1958182N08113 1958 47 WP MM NOT_NAMED 1958-07-03 06:00:00 NR 15.6191 107.852 main 0 0 __________P___ -1 15.6191 107.852 1 3 310
1958182N08113 1958 47 WP MM NOT_NAMED 1958-07-03 09:00:00 NR 15.6631 107.769 main 0 0 __________P___ -1 15.6631 107.769 1 2 266
1958182N08113 1958 47 WP MM NOT_NAMED 1958-07-03 12:00:00 NR 15.6000 107.600 main 0 0 __________O___ -1 15.6000 107.600 1 6 244
1958182N08113 1958 47 WP MM NOT_NAMED 1958-07-03 15:00:00 NR 15.4160 107.241 main 0 0 __________P___ -1 15.4160 107.241 1 10 241
1958182N08113 1958 47 WP MM NOT_NAMED 1958-07-03 18:00:00 NR 15.1334 106.717 main 0 0 __________P___ -1 15.1334 106.717 1 13 240
1958182N08113 1958 47 WP MM NOT_NAMED 1958-07-03 21:00:00 NR 14.7840 106.085 main 0 0 __________P___ -1 14.7840 106.085 1 15 240
1958182N08113 1958 47 WP MM NOT_NAMED 1958-07-04 00:00:00 NR 14.4000 105.400 main 0 __________O___ -1 14.4000 105.400 1 15 240

デジタル台風データ・検索

IBTrACS Databaseについて

本データベースは、米国NOAAが公開する1842年以降の世界の熱帯低気圧のベストトラックデータアーカイブInternational Best Track Archive for Climate Stewardship (IBTrACS)を、ウェブで閲覧しやすい形式に変換したものです。

最終更新日:2021-12-01